Time;durP1;ratioP1;P1;durP2;ratioP2;P2;SDS_P1;SDS_P2;PMS_P1;PMS_P2;Temp;Humidity;BMP_temperature;BMP_pressure;BME280_temperature;BME280_humidity;BME280_pressure;Samples;Min_cycle;Max_cycle;Signal;HPM_P1;HPM_P2
2022/10/03 00:00:09;;;;;;;16.02;3.38;;;10.40;99.90;;;;;;5086179;28;20047;-61
2022/10/03 00:03:13;;;;;;;9.63;2.50;;;10.40;99.90;;;;;;5117125;28;20566;-62
2022/10/03 00:05:51;;;;;;;14.82;2.95;;;10.40;99.90;;;;;;5098182;28;20055;-62
2022/10/03 00:08:29;;;;;;;17.20;2.63;;;10.40;99.90;;;;;;5116950;28;20075;-61
2022/10/03 00:11:09;;;;;;;14.18;4.55;;;10.40;99.90;;;;;;5096658;28;20445;-63
2022/10/03 00:13:45;;;;;;;13.15;3.38;;;10.50;99.90;;;;;;5095568;28;20047;-62
2022/10/03 00:16:18;;;;;;;12.10;2.80;;;10.50;99.90;;;;;;5078078;28;20097;-62
2022/10/03 00:18:59;;;;;;;11.48;3.35;;;10.60;99.90;;;;;;5094825;28;20055;-62
2022/10/03 00:21:47;;;;;;;15.98;2.60;;;10.60;99.90;;;;;;5095992;28;20105;-62
2022/10/03 00:24:23;;;;;;;11.23;2.90;;;10.70;99.90;;;;;;5104666;28;20047;-62
2022/10/03 00:26:55;;;;;;;9.57;2.50;;;10.80;99.90;;;;;;5097550;28;20475;-63
2022/10/03 00:29:45;;;;;;;10.13;2.45;;;10.90;99.90;;;;;;5116306;28;20522;-63
2022/10/03 00:32:26;;;;;;;19.27;2.75;;;10.90;99.90;;;;;;5116617;28;20085;-62
2022/10/03 00:35:03;;;;;;;10.95;2.33;;;10.90;99.90;;;;;;5114637;28;20047;-62
2022/10/03 00:37:35;;;;;;;10.23;2.05;;;11.00;99.90;;;;;;5115521;28;20104;-62
2022/10/03 00:40:39;;;;;;;16.33;2.60;;;11.10;99.90;;;;;;5115880;28;20047;-62
2022/10/03 00:43:46;;;;;;;13.23;2.70;;;11.10;99.90;;;;;;5067033;28;20096;-62
2022/10/03 00:46:40;;;;;;;10.40;2.40;;;11.20;99.90;;;;;;5106101;28;20482;-62
2022/10/03 00:49:33;;;;;;;10.10;2.50;;;11.20;99.90;;;;;;5115548;28;20048;-62
2022/10/03 00:52:30;;;;;;;9.18;2.33;;;11.20;99.90;;;;;;5115832;28;20113;-62
2022/10/03 00:55:09;;;;;;;13.27;2.70;;;11.20;99.90;;;;;;5097493;28;20059;-61
2022/10/03 00:57:56;;;;;;;10.07;2.83;;;11.20;99.90;;;;;;5097834;28;20047;-63
2022/10/03 01:00:27;;;;;;;17.17;2.97;;;11.20;99.90;;;;;;5115787;28;20052;-62
2022/10/03 01:03:08;;;;;;;10.90;2.55;;;11.20;99.90;;;;;;5096986;28;20551;-62
2022/10/03 01:05:45;;;;;;;;;;;11.20;99.90;;;;;;5098417;28;20056;-62
2022/10/03 01:08:48;;;;;;;8.07;2.38;;;11.20;99.90;;;;;;5114817;28;19927;-62
2022/10/03 01:11:29;;;;;;;9.50;2.33;;;11.30;99.90;;;;;;5115680;28;20054;-62
2022/10/03 01:14:20;;;;;;;13.63;3.25;;;11.20;99.90;;;;;;5116071;28;20112;-62
2022/10/03 01:17:01;;;;;;;15.05;2.88;;;11.30;99.90;;;;;;5114562;28;20047;-62
2022/10/03 01:20:03;;;;;;;10.70;2.63;;;11.20;99.90;;;;;;5097351;28;20096;-61
2022/10/03 01:23:05;;;;;;;11.30;2.47;;;11.20;99.90;;;;;;5055337;28;20122;-61
2022/10/03 01:25:39;;;;;;;13.23;2.38;;;11.20;99.90;;;;;;5097368;28;20108;-61
2022/10/03 01:31:22;;;;;;;11.82;3.38;;;11.20;99.90;;;;;;5114562;28;20380;-61
2022/10/03 01:33:57;;;;;;;8.40;2.45;;;11.10;99.90;;;;;;5115539;28;20124;-62
2022/10/03 01:36:32;;;;;;;11.82;2.97;;;11.10;99.90;;;;;;5096367;28;20063;-61
2022/10/03 01:39:07;;;;;;;12.80;3.30;;;11.00;99.90;;;;;;5115491;28;20055;-61
2022/10/03 01:41:44;;;;;;;12.05;2.78;;;11.00;99.90;;;;;;5097043;28;20051;-62
2022/10/03 01:44:18;;;;;;;8.88;2.20;;;10.90;99.90;;;;;;5114320;28;20066;-62
2022/10/03 01:46:50;;;;;;;15.60;2.40;;;10.80;99.90;;;;;;5115058;28;20388;-62
2022/10/03 01:49:25;;;;;;;11.52;2.92;;;10.80;99.90;;;;;;5115039;28;20043;-62
2022/10/03 01:52:00;;;;;;;8.48;2.53;;;10.70;99.90;;;;;;5114108;28;20047;-62
2022/10/03 01:54:35;;;;;;;13.85;3.45;;;10.70;99.90;;;;;;5115043;28;20051;-61
2022/10/03 01:57:13;;;;;;;10.07;2.47;;;10.70;99.90;;;;;;5096340;28;20192;-61
2022/10/03 01:59:47;;;;;;;12.80;3.63;;;10.70;99.90;;;;;;5096300;28;20514;-61
2022/10/03 02:02:28;;;;;;;12.48;2.47;;;10.70;99.90;;;;;;5096474;28;20052;-62
2022/10/03 02:05:03;;;;;;;10.13;2.53;;;10.70;99.90;;;;;;5113631;28;20047;-61
2022/10/03 02:07:41;;;;;;;13.65;2.05;;;10.70;99.90;;;;;;5096163;28;20138;-61
2022/10/03 02:10:20;;;;;;;7.47;2.08;;;10.70;99.90;;;;;;5114849;28;20130;-62
2022/10/03 02:12:56;;;;;;;12.70;2.13;;;10.70;99.90;;;;;;5112744;28;20551;-62
2022/10/03 02:15:28;;;;;;;15.02;3.05;;;10.60;99.90;;;;;;5096525;28;20559;-62
2022/10/03 02:17:58;;;;;;;10.80;2.80;;;10.70;99.90;;;;;;5096326;28;20447;-62
2022/10/03 02:20:33;;;;;;;12.83;2.47;;;10.60;99.90;;;;;;5113594;28;20051;-63
2022/10/03 02:23:01;;;;;;;11.27;2.63;;;10.70;99.90;;;;;;5114590;28;20360;-62
2022/10/03 02:25:48;;;;;;;14.23;2.72;;;10.70;99.90;;;;;;5095449;28;20101;-63
2022/10/03 02:28:58;;;;;;;12.00;2.47;;;10.70;99.90;;;;;;5096013;28;20060;-63
2022/10/03 02:31:57;;;;;;;11.63;2.22;;;10.70;99.90;;;;;;5095908;28;20490;-63
2022/10/03 02:35:01;;;;;;;12.13;2.58;;;10.80;99.90;;;;;;5074425;28;20108;-63
2022/10/03 02:37:47;;;;;;;9.48;2.15;;;10.90;99.90;;;;;;5114139;28;20051;-63
2022/10/03 02:40:43;;;;;;;15.80;2.78;;;11.00;99.90;;;;;;5095077;28;20468;-62
2022/10/03 02:43:40;;;;;;;10.95;2.53;;;11.00;99.90;;;;;;5092657;28;20441;-61
2022/10/03 02:46:45;;;;;;;9.15;2.08;;;11.10;99.90;;;;;;5096117;28;20467;-62
2022/10/03 02:49:58;;;;;;;15.20;3.25;;;11.10;99.90;;;;;;5095348;28;20081;-61
2022/10/03 02:53:02;;;;;;;9.70;2.53;;;11.20;99.90;;;;;;5113650;28;20051;-62
2022/10/03 02:55:54;;;;;;;9.63;2.53;;;11.20;99.90;;;;;;5094978;28;20180;-62
2022/10/03 02:58:49;;;;;;;14.63;3.10;;;11.30;99.90;;;;;;5113702;28;20052;-62
2022/10/03 03:01:59;;;;;;;9.85;2.67;;;11.30;99.90;;;;;;5112908;28;20093;-61
2022/10/03 03:05:07;;;;;;;10.67;2.37;;;11.30;99.90;;;;;;5113762;28;20108;-61
2022/10/03 03:07:51;;;;;;;9.35;2.10;;;11.40;99.90;;;;;;5094787;28;20300;-61
2022/10/03 03:10:39;;;;;;;11.90;2.35;;;11.40;99.90;;;;;;5095725;28;20063;-61
2022/10/03 03:13:45;;;;;;;12.23;2.33;;;11.40;99.90;;;;;;5095227;28;20052;-62
2022/10/03 03:16:39;;;;;;;14.30;2.42;;;11.40;99.90;;;;;;5112372;28;20124;-62
2022/10/03 03:19:26;;;;;;;7.80;2.08;;;11.40;99.90;;;;;;5113626;28;20387;-62
2022/10/03 03:22:00;;;;;;;9.27;2.22;;;11.40;99.90;;;;;;5094118;28;20092;-61
2022/10/03 03:24:53;;;;;;;8.50;2.17;;;11.40;99.90;;;;;;5113421;28;20096;-61
2022/10/03 03:27:43;;;;;;;8.27;2.40;;;11.50;99.90;;;;;;5113440;28;20380;-62
2022/10/03 03:30:13;;;;;;;6.78;1.90;;;11.50;99.90;;;;;;5093906;28;20131;-62
2022/10/03 03:32:55;;;;;;;10.73;2.53;;;11.50;99.90;;;;;;5113204;28;20432;-62
2022/10/03 03:35:31;;;;;;;6.35;2.03;;;11.50;99.90;;;;;;5113440;28;20073;-62
2022/10/03 03:38:10;;;;;;;11.18;2.45;;;11.50;99.90;;;;;;5094269;28;20055;-62
2022/10/03 03:40:51;;;;;;;7.45;1.67;;;11.50;99.90;;;;;;5113301;28;20499;-62
2022/10/03 03:43:40;;;;;;;11.30;2.20;;;11.40;99.90;;;;;;5112647;28;20044;-62
2022/10/03 03:46:21;;;;;;;9.13;2.25;;;11.50;99.90;;;;;;5095003;28;20376;-63
2022/10/03 03:49:15;;;;;;;12.60;2.85;;;11.50;99.90;;;;;;5113090;28;20051;-62
2022/10/03 03:51:57;;;;;;;12.77;2.75;;;11.50;99.90;;;;;;5074681;28;20183;-62
2022/10/03 03:54:46;;;;;;;10.40;2.58;;;11.60;99.90;;;;;;5094971;28;20494;-62
2022/10/03 03:57:46;;;;;;;10.38;2.35;;;11.60;99.90;;;;;;5094121;28;20048;-62
2022/10/03 04:00:16;;;;;;;14.05;2.65;;;11.60;99.90;;;;;;5041363;28;20055;-61
2022/10/03 04:02:58;;;;;;;12.65;2.60;;;11.60;99.90;;;;;;5094793;28;20098;-62
2022/10/03 04:05:47;;;;;;;8.77;2.50;;;11.60;99.90;;;;;;5112581;28;20048;-62
2022/10/03 04:08:28;;;;;;;6.60;2.05;;;11.50;99.90;;;;;;5091473;28;20503;-62
2022/10/03 04:11:11;;;;;;;9.88;2.40;;;11.60;99.90;;;;;;5112320;28;20047;-62
2022/10/03 04:13:57;;;;;;;13.32;2.92;;;11.50;99.90;;;;;;5094248;28;20097;-62
2022/10/03 04:19:39;;;;;;;7.00;2.30;;;11.50;99.90;;;;;;5112108;28;20043;-61
2022/10/03 04:22:14;;;;;;;;;;;11.40;99.90;;;;;;5095379;28;20112;-62
2022/10/03 04:25:28;;;;;;;8.07;1.90;;;11.40;99.90;;;;;;5112660;28;19920;-62
2022/10/03 04:28:18;;;;;;;10.90;2.30;;;11.40;99.90;;;;;;5010003;28;20056;-61
2022/10/03 04:30:58;;;;;;;12.52;2.83;;;11.40;99.90;;;;;;4994227;28;20057;-62
2022/10/03 04:33:38;;;;;;;10.18;2.92;;;11.40;99.90;;;;;;5066204;28;20547;-62
2022/10/03 04:36:42;;;;;;;8.60;2.60;;;11.40;99.90;;;;;;5092088;28;20055;-63
2022/10/03 04:39:17;;;;;;;12.93;2.83;;;11.40;99.90;;;;;;5095175;28;20056;-62
2022/10/03 04:41:53;;;;;;;10.98;2.97;;;11.40;99.90;;;;;;5096042;28;20119;-63
2022/10/03 04:44:36;;;;;;;8.55;2.53;;;11.40;99.90;;;;;;5096046;28;20048;-63
2022/10/03 04:47:09;;;;;;;8.95;2.50;;;11.40;99.90;;;;;;5095079;28;20052;-62
2022/10/03 04:49:43;;;;;;;12.57;2.60;;;11.40;99.90;;;;;;5095682;28;20052;-62
2022/10/03 04:52:19;;;;;;;10.98;2.72;;;11.40;99.90;;;;;;5077794;28;20105;-62
2022/10/03 04:54:56;;;;;;;9.45;2.45;;;11.40;99.90;;;;;;5095000;28;20407;-61
2022/10/03 04:57:31;;;;;;;7.75;2.53;;;11.30;99.90;;;;;;5077386;28;20117;-61
2022/10/03 05:00:07;;;;;;;9.68;2.47;;;11.30;99.90;;;;;;5072722;28;20105;-59
2022/10/03 05:02:50;;;;;;;9.50;2.85;;;11.20;99.90;;;;;;5073334;28;20052;-59
2022/10/03 05:05:45;;;;;;;9.55;2.38;;;11.10;99.90;;;;;;5084296;28;20044;-60
2022/10/03 05:08:27;;;;;;;12.85;2.70;;;11.00;99.90;;;;;;5084918;28;20047;-60
2022/10/03 05:11:09;;;;;;;9.32;2.75;;;10.90;99.90;;;;;;5092117;28;20529;-60
2022/10/03 05:13:53;;;;;;;14.73;3.40;;;10.80;99.90;;;;;;5069706;28;20128;-61
2022/10/03 05:16:30;;;;;;;13.13;2.92;;;10.70;99.90;;;;;;5086927;28;20442;-60
2022/10/03 05:19:10;;;;;;;13.52;2.75;;;10.60;99.90;;;;;;5088265;28;20151;-58
2022/10/03 05:21:41;;;;;;;8.38;2.85;;;10.60;99.90;;;;;;5071583;28;20058;-59
2022/10/03 05:24:18;;;;;;;10.10;2.55;;;10.50;99.90;;;;;;5087220;28;20102;-59
2022/10/03 05:26:52;;;;;;;10.45;2.78;;;10.40;99.90;;;;;;5086956;28;20072;-59
2022/10/03 05:29:33;;;;;;;12.77;3.65;;;10.40;99.90;;;;;;5101520;28;20051;-60
2022/10/03 05:32:12;;;;;;;9.48;2.60;;;10.30;99.90;;;;;;5089541;28;20056;-59
2022/10/03 05:34:54;;;;;;;16.48;4.93;;;10.30;99.90;;;;;;5085717;28;20453;-59
2022/10/03 05:37:48;;;;;;;10.35;2.65;;;10.20;99.90;;;;;;5104251;28;20044;-60
2022/10/03 05:40:18;;;;;;;14.60;3.03;;;10.20;99.90;;;;;;5101386;28;20414;-60
2022/10/03 05:43:00;;;;;;;11.27;2.60;;;10.20;99.90;;;;;;5106984;28;20449;-59
2022/10/03 05:45:36;;;;;;;7.90;2.75;;;10.10;99.90;;;;;;5111043;28;20043;-59
2022/10/03 05:48:22;;;;;;;11.95;2.55;;;10.10;99.90;;;;;;5088130;28;20117;-60
2022/10/03 05:51:23;;;;;;;17.35;2.75;;;10.00;99.90;;;;;;5103661;28;20453;-59
2022/10/03 05:54:19;;;;;;;10.70;2.50;;;10.10;99.90;;;;;;5105452;28;20088;-60
2022/10/03 05:57:15;;;;;;;9.82;3.17;;;10.00;99.90;;;;;;5103521;28;20043;-59
2022/10/03 06:00:06;;;;;;;10.00;3.25;;;10.00;99.90;;;;;;5102608;28;20048;-60
2022/10/03 06:03:19;;;;;;;12.00;2.38;;;9.90;99.90;;;;;;5090434;28;20051;-59
2022/10/03 06:06:00;;;;;;;9.13;2.30;;;9.90;99.90;;;;;;5102349;28;20051;-60
2022/10/03 06:08:55;;;;;;;9.63;2.05;;;9.90;99.90;;;;;;5105003;28;20044;-60
2022/10/03 06:11:43;;;;;;;9.85;2.65;;;9.90;99.90;;;;;;5107862;28;20093;-61
2022/10/03 06:14:33;;;;;;;11.52;2.80;;;9.90;99.90;;;;;;5090524;28;20088;-61
2022/10/03 06:17:17;;;;;;;9.18;2.45;;;9.90;99.90;;;;;;5107110;28;20217;-60
2022/10/03 06:19:50;;;;;;;11.55;3.08;;;10.00;99.90;;;;;;5087461;28;20097;-60
2022/10/03 06:22:59;;;;;;;15.38;3.42;;;10.00;99.90;;;;;;5106298;28;20101;-60
2022/10/03 06:26:15;;;;;;;11.68;3.97;;;10.00;99.90;;;;;;5085856;28;20066;-59
2022/10/03 06:29:15;;;;;;;7.75;3.22;;;10.10;99.90;;;;;;5070403;28;20098;-60
2022/10/03 06:32:20;;;;;;;10.82;3.03;;;10.10;99.90;;;;;;5095061;28;20067;-60
2022/10/03 06:35:24;;;;;;;9.98;2.80;;;10.20;99.90;;;;;;5100425;28;20047;-60
2022/10/03 06:38:31;;;;;;;10.18;2.35;;;10.30;99.90;;;;;;5100313;28;20052;-60
2022/10/03 06:41:48;;;;;;;5.60;2.40;;;10.30;99.90;;;;;;5073374;28;20056;-60
2022/10/03 06:44:40;;;;;;;10.55;2.72;;;10.40;99.90;;;;;;5026979;28;20513;-60
2022/10/03 06:47:32;;;;;;;10.32;3.00;;;10.50;99.90;;;;;;5094125;28;20058;-60
2022/10/03 06:50:35;;;;;;;8.55;2.20;;;10.60;99.90;;;;;;5074096;28;20062;-61
2022/10/03 06:53:28;;;;;;;7.93;2.15;;;10.70;99.90;;;;;;5092158;28;20113;-61
2022/10/03 06:56:21;;;;;;;10.77;2.55;;;11.10;99.90;;;;;;5091733;28;20040;-61
2022/10/03 06:59:18;;;;;;;17.38;3.03;;;11.40;99.90;;;;;;5091835;27;20051;-61
2022/10/03 07:02:03;;;;;;;11.82;2.83;;;11.60;99.90;;;;;;5082422;28;20376;-60
2022/10/03 07:05:04;;;;;;;9.77;2.35;;;11.80;99.90;;;;;;5093680;28;20063;-60
2022/10/03 07:08:14;;;;;;;8.93;2.72;;;12.20;99.90;;;;;;5082626;28;20100;-60
2022/10/03 07:11:05;;;;;;;12.07;2.60;;;13.80;99.90;;;;;;5038611;28;20047;-61
2022/10/03 07:13:56;;;;;;;;;;;15.40;99.90;;;;;;5080761;28;20056;-60
2022/10/03 07:16:52;;;;;;;8.20;2.03;;;16.70;99.90;;;;;;5070694;28;20001;-60
2022/10/03 07:19:41;;;;;;;8.48;2.45;;;17.80;99.90;;;;;;5093239;28;20117;-60
2022/10/03 07:22:44;;;;;;;9.65;2.03;;;18.60;99.90;;;;;;5083468;28;20075;-60
2022/10/03 07:25:44;;;;;;;7.30;2.15;;;19.30;99.90;;;;;;5104176;28;20089;-61
2022/10/03 07:28:23;;;;;;;;;;;20.10;99.90;;;;;;5090973;28;20475;-60
2022/10/03 07:31:02;;;;;;;7.18;2.15;;;20.60;99.90;;;;;;5094516;28;19957;-61
2022/10/03 07:34:03;;;;;;;8.15;1.90;;;21.20;99.90;;;;;;5094761;28;20445;-61
2022/10/03 07:40:08;;;;;;;7.53;1.58;;;22.00;99.90;;;;;;5094734;28;20525;-61
2022/10/03 07:43:12;;;;;;;7.10;2.60;;;22.30;99.90;;;;;;5095860;28;20470;-61
2022/10/03 07:45:44;;;;;;;8.70;2.75;;;22.60;99.90;;;;;;5091157;28;20487;-60
2022/10/03 07:48:50;;;;;;;6.82;2.13;;;22.90;99.90;;;;;;5092307;28;20044;-60
2022/10/03 07:51:36;;;;;;;9.32;2.00;;;22.90;97.60;;;;;;5050632;28;20052;-61
2022/10/03 07:54:34;;;;;;;5.50;2.35;;;23.20;99.00;;;;;;5090920;28;20105;-61
2022/10/03 07:57:30;;;;;;;8.73;2.30;;;23.60;97.10;;;;;;5095273;28;20052;-61
2022/10/03 08:00:12;;;;;;;7.93;1.73;;;23.90;95.80;;;;;;5073764;28;20109;-61
2022/10/03 08:03:09;;;;;;;9.85;2.50;;;23.80;94.40;;;;;;5078989;28;20104;-61
2022/10/03 08:05:49;;;;;;;8.80;1.85;;;24.10;93.40;;;;;;5112240;28;20039;-61
2022/10/03 08:08:49;;;;;;;7.78;2.42;;;24.30;94.90;;;;;;5093760;28;20552;-60
2022/10/03 08:11:41;;;;;;;7.50;1.52;;;24.40;92.80;;;;;;5113065;28;20487;-59
2022/10/03 08:14:19;;;;;;;11.18;1.70;;;24.90;92.00;;;;;;5098331;28;20141;-60
2022/10/03 08:17:29;;;;;;;5.05;2.10;;;25.10;94.00;;;;;;5098264;28;20055;-61
2022/10/03 08:20:20;;;;;;;6.57;1.30;;;25.10;90.90;;;;;;5040676;28;20055;-61
2022/10/03 08:23:02;;;;;;;7.38;2.20;;;25.10;91.70;;;;;;5116605;28;20051;-61
2022/10/03 08:25:44;;;;;;;7.45;1.80;;;25.30;91.60;;;;;;5097825;28;20052;-61
2022/10/03 08:28:50;;;;;;;7.35;1.92;;;25.80;91.00;;;;;;5113219;28;20055;-61
2022/10/03 08:31:42;;;;;;;7.72;2.33;;;25.80;90.00;;;;;;5087062;28;20051;-61
2022/10/03 08:34:48;;;;;;;6.25;1.80;;;25.80;90.30;;;;;;5116378;28;20148;-62
2022/10/03 08:37:48;;;;;;;7.75;1.98;;;25.80;88.10;;;;;;5082202;28;20468;-61
2022/10/03 08:40:55;;;;;;;5.97;1.60;;;25.90;89.60;;;;;;5115179;28;20495;-62
2022/10/03 08:43:52;;;;;;;5.75;1.80;;;25.70;88.60;;;;;;5134277;27;20057;-62
2022/10/03 08:46:46;;;;;;;3.78;1.60;;;26.30;88.40;;;;;;5107509;27;20044;-62
2022/10/03 08:49:34;;;;;;;6.78;1.40;;;26.10;90.20;;;;;;5102684;28;20048;-62
2022/10/03 08:52:20;;;;;;;6.32;1.98;;;26.70;88.60;;;;;;5097365;28;20638;-62
2022/10/03 08:55:09;;;;;;;4.60;1.50;;;26.70;86.30;;;;;;5060523;28;20530;-61
2022/10/03 08:58:12;;;;;;;6.97;1.80;;;27.20;87.20;;;;;;5106382;28;20505;-61
2022/10/03 09:01:02;;;;;;;6.03;1.70;;;27.40;83.40;;;;;;5094748;28;20048;-60
2022/10/03 09:04:25;;;;;;;3.90;1.50;;;27.40;82.50;;;;;;5078027;27;20044;-60
2022/10/03 09:07:23;;;;;;;7.78;1.52;;;27.50;82.80;;;;;;5073732;28;20479;-61
2022/10/03 09:10:30;;;;;;;7.90;1.70;;;27.80;82.30;;;;;;5098750;28;20100;-62
2022/10/03 09:13:46;;;;;;;6.88;1.45;;;27.80;81.30;;;;;;5062093;28;20056;-60
2022/10/03 09:16:49;;;;;;;5.40;1.23;;;27.90;79.10;;;;;;5082882;28;20491;-61
2022/10/03 09:19:32;;;;;;;3.80;1.27;;;27.30;80.30;;;;;;5076060;28;20052;-60
2022/10/03 09:22:34;;;;;;;5.53;1.40;;;27.80;80.00;;;;;;5088584;28;20062;-61
2022/10/03 09:25:24;;;;;;;5.50;1.42;;;27.40;79.30;;;;;;5089545;28;20127;-60
2022/10/03 09:28:31;;;;;;;8.32;1.98;;;27.70;81.20;;;;;;5092740;28;20105;-61
2022/10/03 09:31:12;;;;;;;5.43;1.55;;;27.70;78.20;;;;;;5072944;28;20052;-60
2022/10/03 09:34:24;;;;;;;5.95;1.50;;;27.90;78.00;;;;;;5073780;28;20048;-60
2022/10/03 09:37:33;;;;;;;5.75;1.35;;;28.40;78.00;;;;;;4997262;28;20058;-62
2022/10/03 09:40:49;;;;;;;9.75;2.42;;;27.90;77.90;;;;;;5048548;28;20059;-62
2022/10/03 09:43:51;;;;;;;8.63;2.10;;;28.10;77.70;;;;;;5082490;28;20044;-62
2022/10/03 09:46:43;;;;;;;5.22;1.42;;;28.40;75.70;;;;;;5073006;28;20044;-61
2022/10/03 09:49:42;;;;;;;5.07;1.50;;;28.10;75.60;;;;;;5072376;28;20484;-61
2022/10/03 09:52:31;;;;;;;5.40;1.40;;;27.80;76.60;;;;;;5052287;28;20114;-60
2022/10/03 09:55:25;;;;;;;4.05;1.30;;;27.40;76.80;;;;;;5072629;28;20045;-61
2022/10/03 09:58:28;;;;;;;6.00;1.40;;;27.70;77.50;;;;;;5076323;28;20060;-60
2022/10/03 10:01:19;;;;;;;3.75;1.23;;;27.60;76.10;;;;;;5061507;28;20067;-61
2022/10/03 10:04:30;;;;;;;4.68;1.25;;;27.60;76.40;;;;;;5093148;28;20052;-61
2022/10/03 10:07:43;;;;;;;5.35;1.33;;;27.60;76.40;;;;;;5077336;28;20048;-62
2022/10/03 10:10:53;;;;;;;4.05;1.20;;;27.40;76.00;;;;;;5024366;28;20100;-62
2022/10/03 10:14:01;;;;;;;5.38;1.15;;;27.60;76.30;;;;;;5060860;28;20109;-61
2022/10/03 10:16:45;;;;;;;5.53;1.48;;;27.80;76.30;;;;;;5029810;28;20110;-61
2022/10/03 10:19:43;;;;;;;5.97;1.50;;;27.10;76.70;;;;;;5066647;28;20063;-61
2022/10/03 10:22:59;;;;;;;4.93;1.20;;;27.60;77.10;;;;;;5049044;28;20063;-61
2022/10/03 10:26:09;;;;;;;3.53;1.30;;;28.10;75.90;;;;;;5092515;28;20044;-61
2022/10/03 10:29:23;;;;;;;5.95;1.50;;;28.20;74.60;;;;;;4983520;28;20080;-61
2022/10/03 10:32:22;;;;;;;3.30;1.10;;;28.10;74.70;;;;;;4993877;28;20053;-60
2022/10/03 10:35:07;;;;;;;;;;;28.20;75.50;;;;;;5074093;28;20044;-60
2022/10/03 10:38:28;;;;;;;6.13;1.42;;;27.90;74.80;;;;;;5102150;28;19966;-61
2022/10/03 10:41:47;;;;;;;4.85;1.60;;;28.00;76.20;;;;;;5049723;28;20135;-60
2022/10/03 10:45:02;;;;;;;4.40;1.27;;;28.20;75.60;;;;;;5037399;28;20115;-60
2022/10/03 10:48:23;;;;;;;3.75;1.20;;;28.00;74.90;;;;;;5092092;28;20108;-60
2022/10/03 10:51:28;;;;;;;6.13;1.30;;;28.10;75.20;;;;;;5092160;28;20608;-61
2022/10/03 10:54:31;;;;;;;5.72;1.33;;;27.80;74.90;;;;;;5091105;28;20130;-60
2022/10/03 10:57:14;;;;;;;5.03;1.42;;;27.50;76.50;;;;;;5084575;28;20051;-61
2022/10/03 11:00:11;;;;;;;5.68;1.58;;;27.10;77.70;;;;;;5101352;28;20418;-61
2022/10/03 11:03:15;;;;;;;4.05;1.15;;;26.30;76.50;;;;;;5092446;28;20076;-61
2022/10/03 11:06:29;;;;;;;7.28;1.40;;;25.90;77.20;;;;;;5080981;28;20054;-62
2022/10/03 11:09:27;;;;;;;4.38;1.20;;;26.30;77.20;;;;;;5091386;28;20056;-61
2022/10/03 11:12:43;;;;;;;6.03;1.20;;;26.60;76.00;;;;;;5092854;28;20558;-60
2022/10/03 11:15:39;;;;;;;4.07;1.25;;;27.10;76.30;;;;;;5103357;28;20048;-62
2022/10/03 11:18:46;;;;;;;2.53;0.98;;;27.60;75.50;;;;;;5071308;28;20105;-61
2022/10/03 11:21:46;;;;;;;4.00;1.23;;;27.40;74.50;;;;;;5080761;28;20056;-61
2022/10/03 11:24:40;;;;;;;2.90;1.00;;;26.80;75.10;;;;;;5086460;28;20112;-61
2022/10/03 11:27:55;;;;;;;6.97;1.50;;;25.70;75.70;;;;;;5099531;28;20109;-61
2022/10/03 11:30:41;;;;;;;5.03;1.63;;;25.10;77.60;;;;;;5090427;28;20052;-59
2022/10/03 11:33:50;;;;;;;4.32;1.40;;;24.70;79.20;;;;;;5091264;28;20044;-61
2022/10/03 11:36:43;;;;;;;4.95;1.17;;;24.50;79.80;;;;;;5084891;28;20479;-60
2022/10/03 11:39:21;;;;;;;3.85;1.20;;;24.60;80.70;;;;;;5088180;28;20141;-60
2022/10/03 11:41:56;;;;;;;5.28;1.08;;;24.80;80.30;;;;;;5090072;28;20172;-61
2022/10/03 11:44:27;;;;;;;5.55;1.20;;;24.50;80.00;;;;;;5094548;28;20059;-61
2022/10/03 11:47:07;;;;;;;6.57;1.65;;;24.90;81.00;;;;;;5101454;28;20063;-60
2022/10/03 11:50:03;;;;;;;3.50;1.13;;;25.10;79.40;;;;;;5087018;28;20521;-61
2022/10/03 11:52:35;;;;;;;3.70;1.10;;;25.60;79.20;;;;;;5088417;28;20051;-60
2022/10/03 11:55:16;;;;;;;7.65;1.20;;;25.90;78.60;;;;;;5101189;28;20096;-61
2022/10/03 11:57:51;;;;;;;5.43;1.50;;;26.30;78.10;;;;;;5095173;28;20518;-61
2022/10/03 12:00:22;;;;;;;3.65;1.08;;;26.30;77.80;;;;;;5085755;28;20487;-62
2022/10/03 12:03:12;;;;;;;5.43;1.67;;;26.20;78.70;;;;;;5099300;28;20048;-61
2022/10/03 12:08:53;;;;;;;3.95;1.20;;;26.60;78.50;;;;;;5084974;28;20098;-61
2022/10/03 12:08:55;;;;;;;5.18;1.00;;;27.60;78.00;;;;;;5081800;28;20138;-60
2022/10/03 12:11:28;;;;;;;3.75;1.10;;;27.80;75.60;;;;;;5099686;28;20121;-60
2022/10/03 12:14:03;;;;;;;;;;;28.10;76.40;;;;;;5109464;28;20533;-60
2022/10/03 12:16:44;;;;;;;7.28;1.58;;;27.30;74.40;;;;;;5104037;28;19965;-61
2022/10/03 12:19:23;;;;;;;4.18;1.10;;;27.50;75.50;;;;;;5080084;28;20537;-61
2022/10/03 12:21:56;;;;;;;5.22;1.35;;;27.40;76.50;;;;;;5103651;28;20423;-61
2022/10/03 12:24:28;;;;;;;3.25;1.10;;;26.70;77.10;;;;;;5081583;28;20056;-61
2022/10/03 12:27:04;;;;;;;3.25;1.08;;;26.00;77.40;;;;;;5081153;28;20097;-61
2022/10/03 12:29:35;;;;;;;2.70;1.17;;;25.20;79.40;;;;;;5105716;28;20502;-61
2022/10/03 12:32:20;;;;;;;3.70;1.17;;;24.60;80.70;;;;;;5079475;28;20056;-61
2022/10/03 12:34:55;;;;;;;4.72;1.23;;;24.20;82.70;;;;;;5109294;28;20134;-61
2022/10/03 12:37:38;;;;;;;7.18;1.58;;;23.90;83.20;;;;;;5079776;28;20060;-61
2022/10/03 12:40:11;;;;;;;3.47;1.10;;;23.60;83.80;;;;;;5101372;28;20101;-61
2022/10/03 12:42:47;;;;;;;4.43;1.30;;;23.80;83.90;;;;;;5082164;28;20052;-62
2022/10/03 12:45:23;;;;;;;5.18;1.23;;;24.10;84.00;;;;;;5078083;28;20482;-61
2022/10/03 12:48:14;;;;;;;3.58;1.27;;;24.20;83.40;;;;;;5102780;28;21205;-61
2022/10/03 12:50:46;;;;;;;4.22;1.20;;;23.90;84.00;;;;;;5070575;28;20054;-60
2022/10/03 12:53:34;;;;;;;6.18;1.45;;;23.90;84.60;;;;;;5094412;28;20109;-62
2022/10/03 12:56:27;;;;;;;4.22;1.63;;;23.80;84.90;;;;;;5093297;28;20044;-60
2022/10/03 12:59:17;;;;;;;5.95;1.45;;;23.70;83.00;;;;;;5072627;28;20092;-60
2022/10/03 13:02:14;;;;;;;5.07;1.52;;;23.20;84.10;;;;;;5076219;28;20436;-61
2022/10/03 13:04:51;;;;;;;4.18;1.23;;;23.00;85.90;;;;;;5093297;28;20131;-62
2022/10/03 13:07:27;;;;;;;9.55;1.67;;;22.80;86.80;;;;;;5099287;28;20399;-59
2022/10/03 13:10:03;;;;;;;5.78;1.23;;;23.10;87.10;;;;;;5094016;28;20055;-61
2022/10/03 13:12:39;;;;;;;3.20;1.10;;;23.20;86.10;;;;;;5099964;28;20388;-61
2022/10/03 13:15:40;;;;;;;3.53;1.20;;;23.20;85.80;;;;;;5092838;28;20051;-60
2022/10/03 13:18:18;;;;;;;6.60;1.52;;;23.70;85.10;;;;;;5079300;28;20486;-60
2022/10/03 13:20:58;;;;;;;4.28;1.15;;;23.90;85.10;;;;;;5109575;28;20040;-61
2022/10/03 13:23:39;;;;;;;3.70;1.40;;;24.50;83.90;;;;;;5093324;28;20047;-61
2022/10/03 13:26:11;;;;;;;4.90;1.08;;;24.40;82.80;;;;;;5093373;28;20545;-60
2022/10/03 13:29:12;;;;;;;6.50;1.50;;;23.80;84.20;;;;;;5093090;28;20056;-61
2022/10/03 13:31:53;;;;;;;5.93;1.25;;;23.10;85.60;;;;;;5093150;28;20393;-61
2022/10/03 13:34:24;;;;;;;4.70;1.30;;;22.40;87.00;;;;;;5083201;28;20044;-60
2022/10/03 13:36:56;;;;;;;3.65;1.38;;;22.10;88.80;;;;;;5114392;28;20552;-60
2022/10/03 13:39:26;;;;;;;4.32;1.65;;;22.00;89.20;;;;;;5099661;28;20095;-61
2022/10/03 13:42:14;;;;;;;2.42;1.05;;;22.30;88.90;;;;;;5096117;28;20047;-61
2022/10/03 13:44:49;;;;;;;3.70;1.30;;;22.60;87.90;;;;;;5095234;28;20044;-61
2022/10/03 13:47:44;;;;;;;6.15;1.63;;;22.60;87.80;;;;;;5088244;28;20151;-61
2022/10/03 13:50:18;;;;;;;5.28;1.30;;;22.40;87.90;;;;;;5113859;28;20402;-60
2022/10/03 13:52:52;;;;;;;4.38;1.80;;;22.40;88.20;;;;;;5093599;28;20445;-61
2022/10/03 13:55:29;;;;;;;4.10;1.45;;;22.50;88.40;;;;;;5093559;28;20047;-61
2022/10/03 13:58:09;;;;;;;6.95;1.52;;;22.50;89.20;;;;;;5093404;28;20056;-61
2022/10/03 14:00:49;;;;;;;3.20;1.20;;;22.30;88.60;;;;;;5094498;28;20052;-61
2022/10/03 14:03:26;;;;;;;5.80;1.35;;;22.20;88.40;;;;;;5092220;28;20499;-60
2022/10/03 14:06:10;;;;;;;6.43;2.22;;;21.80;90.20;;;;;;5104537;28;20044;-60
2022/10/03 14:09:05;;;;;;;5.45;1.38;;;21.60;90.00;;;;;;5087659;28;20619;-60
2022/10/03 14:11:45;;;;;;;2.55;1.17;;;21.20;90.40;;;;;;5090288;28;20104;-60
2022/10/03 14:14:39;;;;;;;6.27;1.77;;;20.90;91.20;;;;;;5113608;28;20449;-60
2022/10/03 14:17:11;;;;;;;3.70;1.27;;;20.60;91.50;;;;;;5113927;28;20100;-60
2022/10/03 14:19:51;;;;;;;7.18;1.55;;;20.50;91.50;;;;;;5113842;28;20080;-61
2022/10/03 14:22:38;;;;;;;4.72;1.35;;;20.70;91.60;;;;;;5114287;28;20048;-60
2022/10/03 14:25:20;;;;;;;5.57;1.30;;;20.60;91.60;;;;;;5113880;28;20054;-61
2022/10/03 14:27:51;;;;;;;4.72;1.48;;;20.70;92.00;;;;;;5096180;28;20063;-60
2022/10/03 14:30:21;;;;;;;6.45;1.77;;;20.60;92.20;;;;;;5112432;28;20104;-60
2022/10/03 14:33:13;;;;;;;5.05;1.70;;;20.60;92.10;;;;;;5096307;28;20517;-59
2022/10/03 14:35:51;;;;;;;3.78;0.90;;;20.60;92.30;;;;;;5095570;28;20044;-60
2022/10/03 14:39:00;;;;;;;2.92;1.13;;;20.30;92.30;;;;;;5094420;28;20051;-61
2022/10/03 14:41:41;;;;;;;4.18;1.35;;;20.20;92.70;;;;;;5114091;28;20051;-61
2022/10/03 14:44:11;;;;;;;4.95;1.40;;;20.00;93.20;;;;;;5094957;28;20052;-60